Lady Lake, Florida
Current Conditions -  °F | °C
As of 1:53 AM on Sunday 21 Dec 2014 (Local Time) from KLEE Reporting Station
Few Clouds Few Clouds  
Wind Chill: 62°   Ceiling: Unl
Heat Index: 62°   Visibility: 7mi
Dew Point: 60°   Wind: 7mph
Humidity: 93%   Direction: 60°ENE
Pressure: 30.08"   Gusts: NA
Location:  28.92°N, 81.92°W
Report Text: KLEE 210653Z AUTO 06006KT 7SM FEW085 17/16 A3008 RMK AO2 SLP186 T01670156
Loading
Personal Weather Stations






























Interactive Weather Map New forecast layout! Learn more

10-Day Weather Forecast

Advertisements
Track Severe Weather on mobile